Griffiss International Airport
KRME : now visible

Airfield :











YOU CAN JOIN US ON...

 
LOGIN :

Register | Disclaimer

   EN    FR    IT 

 









Legend :    VFR   Marginal VFR   IFR   Intensive IFR   Very Intensive IFR
Visi :
Ceiling :
>= 8 km
>= 3000ft
5 to 8 km
1000 to 3000 ft
1500m to 5 km
500 to 1000 ft
800 to 1500m
200 to 500 ft
< 800m
< 200 ft
Symbols :   Thunderstorms  Fog  Heavy snow  Heavy precipitations  Wind > 20 kt






- Airport Elevation : 504 ft


KRME - Griffiss International

CURRENT METAR :
  • 270053Z 12003KT 10SM CLR 26/18 A3008 RMK AO2 SLP182 T02610183

EXPIRED METARs :
  • 262353Z 04003KT 10SM CLR 28/19 A3007 RMK AO2 SLP178 T02830194 10333 20283 55004
  • 262253Z 00000KT 10SM CLR 32/16 A3006 RMK AO2 SLP175 T03220161

TAF KRME
Valid from the 27 at 00:00 until the 28 at 00:00 UTC


262327Z 2700/2724 00000KT P6SM SKC
FM271600 18006KT P6SM FEW050 SCT250
KZBW FIR / North America



MET'MAP, your aeronautical weather chart ! - Copyright ORBIFLY December 2007 - Disclaimer

ORBIFLY MET'MAP TEAM :

Programming & Development : Alexandra Zaïnal
Concept & original design : Baudouin d'Aumeries
Assistance for programming : Marc-Olivier Méhu
Technical & hardware support : Manuel Goepfert

Contact : metmap@orbifly.com




SOURCES & CREDITS :

   NOAA       Earth
Advisory